createdAt,value
2018-02-18T00:01:01.742Z,20.77
2018-02-18T00:03:30.058Z,19.80
2018-02-18T00:05:58.014Z,20.60
2018-02-18T00:08:26.140Z,18.93
2018-02-18T00:10:54.343Z,18.77
2018-02-18T00:13:22.455Z,20.43
2018-02-18T00:15:50.558Z,21.00
2018-02-18T00:18:18.810Z,19.03
2018-02-18T00:20:46.938Z,18.97
2018-02-18T00:23:15.063Z,19.10
2018-02-18T00:25:43.175Z,18.63
2018-02-18T00:28:11.331Z,18.00
2018-02-18T00:30:39.460Z,18.17
2018-02-18T00:33:07.576Z,17.23
2018-02-18T00:35:35.773Z,17.23
2018-02-18T00:38:03.948Z,16.87
2018-02-18T00:40:32.048Z,16.93
2018-02-18T00:43:00.176Z,16.97
2018-02-18T00:45:28.301Z,17.53
2018-02-18T00:47:56.480Z,17.60
2018-02-18T00:50:24.600Z,18.40
2018-02-18T00:52:52.720Z,18.90
2018-02-18T00:55:20.829Z,18.00
2018-02-18T00:57:48.954Z,18.20
2018-02-18T01:00:17.214Z,17.30
2018-02-18T01:02:45.330Z,16.87
2018-02-18T01:05:13.457Z,16.37
2018-02-18T01:07:41.569Z,16.03
2018-02-18T01:10:09.701Z,17.17
2018-02-18T01:12:37.828Z,16.77
2018-02-18T01:15:05.945Z,17.40
2018-02-18T01:17:34.081Z,16.53
2018-02-18T01:20:02.187Z,16.23
2018-02-18T01:22:30.299Z,15.57
2018-02-18T01:24:58.491Z,16.23
2018-02-18T01:27:26.615Z,16.00
2018-02-18T01:29:54.734Z,15.50
2018-02-18T01:32:22.858Z,16.57
2018-02-18T01:34:50.982Z,16.30
2018-02-18T01:37:19.101Z,14.50
2018-02-18T01:39:47.230Z,15.57
2018-02-18T01:42:15.345Z,15.53
2018-02-18T01:44:43.469Z,15.03
2018-02-18T01:47:11.594Z,15.13
2018-02-18T01:49:39.718Z,14.37
2018-02-18T01:52:08.153Z,14.20
2018-02-18T01:54:36.255Z,13.77
2018-02-18T01:57:04.393Z,13.03
2018-02-18T01:59:32.494Z,14.77
2018-02-18T02:02:00.623Z,14.57
2018-02-18T02:04:28.738Z,14.40
2018-02-18T02:06:56.843Z,15.10
2018-02-18T02:09:24.965Z,14.37
2018-02-18T02:11:53.071Z,14.80
2018-02-18T02:14:21.185Z,14.23
2018-02-18T02:16:49.307Z,13.43
2018-02-18T02:19:20.790Z,13.73
2018-02-18T02:21:48.897Z,14.07
2018-02-18T02:24:17.017Z,14.20
2018-02-18T02:26:45.147Z,14.90
2018-02-18T02:29:13.252Z,14.53
2018-02-18T02:31:41.391Z,13.97
2018-02-18T02:34:09.494Z,15.10
2018-02-18T02:36:37.641Z,13.43
2018-02-18T02:39:05.751Z,13.27
2018-02-18T02:41:33.884Z,12.93
2018-02-18T02:44:01.995Z,13.30
2018-02-18T02:46:30.110Z,13.00
2018-02-18T02:48:58.233Z,13.23
2018-02-18T02:51:26.343Z,14.43
2018-02-18T02:53:54.478Z,14.97
2018-02-18T02:56:22.588Z,13.70
2018-02-18T02:58:50.721Z,13.87
2018-02-18T03:01:18.819Z,13.20
2018-02-18T03:03:46.929Z,12.97
2018-02-18T03:06:15.039Z,12.40
2018-02-18T03:08:43.149Z,12.77
2018-02-18T03:11:11.264Z,12.80
2018-02-18T03:13:39.405Z,13.00
2018-02-18T03:16:07.525Z,12.80
2018-02-18T03:18:35.654Z,13.87
2018-02-18T03:21:03.772Z,12.90
2018-02-18T03:23:31.909Z,14.00
2018-02-18T03:26:00.042Z,12.50
2018-02-18T03:28:28.167Z,13.00
2018-02-18T03:30:56.299Z,12.43
2018-02-18T03:33:24.580Z,12.27
2018-02-18T03:35:52.696Z,12.20
2018-02-18T03:38:20.811Z,13.13
2018-02-18T03:40:49.057Z,12.53
2018-02-18T03:43:17.175Z,11.90
2018-02-18T03:45:45.294Z,12.37
2018-02-18T03:48:13.418Z,13.57
2018-02-18T03:50:41.544Z,12.50
2018-02-18T03:53:09.642Z,12.10
2018-02-18T03:55:37.785Z,12.80
2018-02-18T03:58:05.896Z,12.57
2018-02-18T04:00:34.011Z,13.30
2018-02-18T04:03:02.128Z,13.63
2018-02-18T04:05:30.260Z,12.33
2018-02-18T04:07:58.344Z,12.97
2018-02-18T04:10:26.470Z,12.57
2018-02-18T04:12:54.576Z,13.40
2018-02-18T04:15:22.680Z,12.90
2018-02-18T04:17:50.806Z,13.10
2018-02-18T04:20:19.005Z,13.13
2018-02-18T04:22:47.120Z,13.57
2018-02-18T04:25:15.228Z,13.30
2018-02-18T04:27:43.342Z,13.17
2018-02-18T04:30:11.477Z,13.10
2018-02-18T04:32:39.588Z,12.93
2018-02-18T04:35:07.712Z,13.50
2018-02-18T04:37:35.843Z,12.90
2018-02-18T04:40:03.951Z,13.30
2018-02-18T04:42:32.078Z,13.63
2018-02-18T04:45:00.182Z,12.70
2018-02-18T04:47:28.299Z,13.80
2018-02-18T04:49:56.426Z,14.03
2018-02-18T04:52:24.538Z,14.03
2018-02-18T04:54:52.674Z,14.13
2018-02-18T04:57:20.798Z,13.40
2018-02-18T04:59:49.800Z,14.70
2018-02-18T05:02:17.922Z,14.13
2018-02-18T05:04:46.053Z,14.10
2018-02-18T05:07:14.179Z,14.37
2018-02-18T05:09:42.313Z,14.07
2018-02-18T05:12:10.415Z,14.40
2018-02-18T05:14:38.565Z,15.10
2018-02-18T05:17:06.689Z,14.23
2018-02-18T05:19:34.792Z,14.47
2018-02-18T05:22:02.899Z,14.30
2018-02-18T05:24:31.029Z,14.50
2018-02-18T05:26:59.133Z,14.97
2018-02-18T05:29:27.261Z,14.07
2018-02-18T05:31:55.383Z,15.67
2018-02-18T05:34:23.509Z,15.80
2018-02-18T05:36:51.621Z,15.33
2018-02-18T05:39:19.759Z,15.77
2018-02-18T05:41:47.874Z,14.83
2018-02-18T05:44:16.024Z,15.43
2018-02-18T05:46:44.139Z,14.40
2018-02-18T05:49:12.259Z,15.90
2018-02-18T05:51:40.377Z,15.30
2018-02-18T05:54:08.513Z,15.77
2018-02-18T05:56:36.617Z,15.40
2018-02-18T05:59:04.733Z,15.17
2018-02-18T06:01:32.860Z,15.60
2018-02-18T06:04:00.980Z,16.27
2018-02-18T06:06:29.114Z,15.20
2018-02-18T06:08:57.249Z,15.97
2018-02-18T06:11:25.369Z,16.27
2018-02-18T06:13:53.502Z,15.40
2018-02-18T06:16:21.616Z,15.17
2018-02-18T06:18:49.739Z,16.67
2018-02-18T06:21:17.873Z,15.83
2018-02-18T06:23:46.015Z,15.53
2018-02-18T06:26:14.347Z,16.17
2018-02-18T06:28:42.448Z,16.57
2018-02-18T06:31:10.576Z,16.40
2018-02-18T06:33:38.697Z,16.03
2018-02-18T06:36:06.817Z,17.30
2018-02-18T06:38:34.936Z,18.13
2018-02-18T06:41:03.380Z,16.97
2018-02-18T06:43:31.489Z,16.70
2018-02-18T06:46:03.260Z,16.37
2018-02-18T06:48:31.386Z,16.97
2018-02-18T06:50:59.504Z,17.13
2018-02-18T06:53:27.641Z,17.37
2018-02-18T06:55:55.765Z,17.50
2018-02-18T06:58:24.149Z,17.13
2018-02-18T07:00:52.264Z,18.43
2018-02-18T07:03:21.292Z,17.30
2018-02-18T07:05:49.474Z,17.37
2018-02-18T07:08:17.587Z,17.43
2018-02-18T07:10:45.726Z,18.00
2018-02-18T07:13:13.840Z,18.37
2018-02-18T07:15:41.947Z,17.80
2018-02-18T07:18:10.086Z,17.63
2018-02-18T07:20:38.202Z,18.07
2018-02-18T07:23:06.320Z,17.27
2018-02-18T07:25:34.435Z,18.63
2018-02-18T07:28:02.696Z,17.73
2018-02-18T07:30:30.858Z,18.53
2018-02-18T07:32:58.966Z,17.87
2018-02-18T07:35:27.095Z,18.33
2018-02-18T07:37:55.226Z,17.97
2018-02-18T07:40:23.327Z,17.87
2018-02-18T07:42:51.461Z,18.63
2018-02-18T07:45:19.579Z,19.20
2018-02-18T07:47:47.693Z,18.67
2018-02-18T07:50:15.803Z,18.37
2018-02-18T07:52:43.924Z,16.90
2018-02-18T07:55:12.090Z,18.30
2018-02-18T07:57:40.185Z,18.83
2018-02-18T08:00:08.276Z,18.63
2018-02-18T08:02:36.391Z,18.23
2018-02-18T08:05:04.530Z,18.47
2018-02-18T08:07:32.640Z,19.73
2018-02-18T08:10:00.779Z,17.87
2018-02-18T08:12:28.899Z,17.93
2018-02-18T08:14:57.025Z,18.07
2018-02-18T08:17:25.168Z,18.60
2018-02-18T08:19:53.298Z,18.83
2018-02-18T08:22:21.422Z,18.30
2018-02-18T08:24:49.540Z,18.17
2018-02-18T08:27:17.645Z,17.40
2018-02-18T08:29:45.756Z,17.70
2018-02-18T08:32:13.893Z,17.93
2018-02-18T08:34:42.016Z,18.27
2018-02-18T08:37:10.129Z,19.20
2018-02-18T08:39:38.243Z,18.53
2018-02-18T08:42:06.461Z,18.53
2018-02-18T08:44:34.510Z,18.50
2018-02-18T08:47:02.708Z,18.53
2018-02-18T08:49:30.850Z,18.47
2018-02-18T08:51:59.091Z,18.77
2018-02-18T08:54:27.199Z,18.03
2018-02-18T08:56:55.330Z,18.57
2018-02-18T08:59:23.463Z,19.17
2018-02-18T09:01:51.579Z,18.43
2018-02-18T09:04:19.718Z,18.43
2018-02-18T09:06:47.834Z,18.53
2018-02-18T09:09:15.963Z,19.17
2018-02-18T09:11:44.103Z,19.20
2018-02-18T09:14:12.218Z,18.77
2018-02-18T09:16:40.341Z,19.77
2018-02-18T09:19:08.439Z,18.70
2018-02-18T09:21:36.570Z,19.47
2018-02-18T09:24:04.694Z,17.93
2018-02-18T09:26:32.816Z,19.30
2018-02-18T09:29:01.254Z,19.57
2018-02-18T09:31:29.443Z,19.10
2018-02-18T09:33:57.546Z,19.27
2018-02-18T09:36:25.718Z,18.30
2018-02-18T09:38:53.806Z,19.17
2018-02-18T09:41:21.913Z,18.57
2018-02-18T09:43:50.027Z,18.80
2018-02-18T09:46:18.178Z,18.67
2018-02-18T09:48:46.304Z,18.30
2018-02-18T09:51:14.434Z,18.43
2018-02-18T09:53:42.558Z,18.70
2018-02-18T09:56:10.697Z,18.10
2018-02-18T09:58:38.838Z,18.37
2018-02-18T10:01:06.951Z,18.20
2018-02-18T10:03:35.085Z,18.80
2018-02-18T10:06:03.197Z,18.37
2018-02-18T10:08:31.364Z,18.30
2018-02-18T10:10:59.631Z,17.33
2018-02-18T10:13:27.820Z,15.90
2018-02-18T10:15:55.941Z,18.20
2018-02-18T10:18:24.604Z,16.47
2018-02-18T10:20:52.730Z,17.73
2018-02-18T10:23:20.877Z,16.97
2018-02-18T10:25:48.993Z,16.33
2018-02-18T10:28:17.354Z,17.00
2018-02-18T10:30:45.472Z,16.53
2018-02-18T10:33:13.599Z,17.63
2018-02-18T10:35:41.738Z,16.30
2018-02-18T10:38:09.843Z,16.97
2018-02-18T10:40:37.978Z,16.63
2018-02-18T10:43:06.089Z,16.87
2018-02-18T10:45:34.218Z,15.53
2018-02-18T10:48:02.359Z,16.80
2018-02-18T10:50:30.478Z,17.77
2018-02-18T10:52:58.611Z,16.87
2018-02-18T10:55:29.888Z,17.33
2018-02-18T10:57:58.010Z,16.30
2018-02-18T11:00:29.805Z,18.23
2018-02-18T11:02:57.927Z,17.60
2018-02-18T11:05:30.823Z,17.17
2018-02-18T11:08:00.280Z,17.67
2018-02-18T11:10:29.225Z,16.90
2018-02-18T11:12:57.344Z,16.43
2018-02-18T11:15:25.488Z,18.20
2018-02-18T11:17:53.599Z,15.23
2018-02-18T11:20:21.729Z,16.80
2018-02-18T11:22:49.867Z,15.27
2018-02-18T11:25:17.992Z,16.67
2018-02-18T11:27:46.127Z,16.63
2018-02-18T11:30:14.250Z,15.77
2018-02-18T11:32:42.363Z,15.47
2018-02-18T11:35:10.482Z,15.73
2018-02-18T11:37:38.602Z,16.00
2018-02-18T11:40:06.714Z,13.77
2018-02-18T11:42:34.888Z,16.70
2018-02-18T11:45:03.005Z,16.07
2018-02-18T11:47:31.127Z,15.50
2018-02-18T11:49:59.255Z,14.93
2018-02-18T11:52:27.392Z,15.43
2018-02-18T11:54:55.756Z,16.57
2018-02-18T11:57:23.906Z,14.73
2018-02-18T11:59:52.024Z,17.07
2018-02-18T12:02:20.220Z,17.20
2018-02-18T12:04:48.557Z,15.40
2018-02-18T12:07:17.140Z,15.80
2018-02-18T12:09:45.286Z,17.40
2018-02-18T12:12:13.476Z,16.53
2018-02-18T12:14:41.613Z,14.63
2018-02-18T12:17:09.736Z,15.23
2018-02-18T12:19:37.861Z,14.53
2018-02-18T12:22:05.967Z,14.53
2018-02-18T12:24:34.085Z,13.63
2018-02-18T12:27:02.216Z,13.60
2018-02-18T12:29:30.328Z,14.47
2018-02-18T12:31:58.462Z,14.63
2018-02-18T12:34:26.606Z,14.90
2018-02-18T12:36:54.716Z,15.13
2018-02-18T12:39:22.866Z,15.97
2018-02-18T12:41:50.977Z,17.10
2018-02-18T12:44:19.116Z,17.80
2018-02-18T12:46:47.220Z,14.47
2018-02-18T12:49:15.356Z,15.37
2018-02-18T12:51:43.491Z,17.87
2018-02-18T12:54:11.600Z,16.67
2018-02-18T12:56:39.721Z,17.40
2018-02-18T12:59:07.851Z,18.43
2018-02-18T13:01:35.988Z,17.30
2018-02-18T13:04:04.156Z,16.33
2018-02-18T13:06:32.271Z,17.30
2018-02-18T13:09:00.371Z,18.13
2018-02-18T13:11:28.500Z,16.53
2018-02-18T13:13:56.633Z,15.93
2018-02-18T13:16:24.752Z,15.87
2018-02-18T13:18:52.892Z,16.00
2018-02-18T13:21:21.153Z,16.47
2018-02-18T13:23:49.257Z,15.50
2018-02-18T13:26:17.399Z,15.60
2018-02-18T13:28:45.527Z,16.43
2018-02-18T13:31:13.679Z,16.27
2018-02-18T13:33:42.197Z,16.30
2018-02-18T13:36:10.338Z,15.33
2018-02-18T13:38:38.448Z,16.63
2018-02-18T13:41:06.594Z,16.20
2018-02-18T13:43:34.704Z,17.30
2018-02-18T13:46:02.844Z,17.07
2018-02-18T13:48:32.938Z,17.20
2018-02-18T13:51:01.580Z,15.80
2018-02-18T13:53:31.366Z,17.30
2018-02-18T13:56:00.487Z,17.30
2018-02-18T13:58:29.085Z,16.23
2018-02-18T14:00:57.226Z,17.47
2018-02-18T14:03:25.345Z,17.43
2018-02-18T14:05:53.470Z,18.17
2018-02-18T14:08:21.716Z,18.10
2018-02-18T14:10:49.844Z,14.70
2018-02-18T14:13:18.098Z,16.10
2018-02-18T14:15:46.208Z,16.40
2018-02-18T14:18:14.367Z,16.13
2018-02-18T14:20:42.503Z,16.00
2018-02-18T14:23:10.624Z,16.50
2018-02-18T14:25:39.240Z,17.13
2018-02-18T14:28:07.744Z,16.50
2018-02-18T14:30:35.871Z,16.90
2018-02-18T14:33:04.011Z,14.93
2018-02-18T14:35:32.131Z,16.47
2018-02-18T14:38:00.233Z,17.17
2018-02-18T14:40:28.384Z,15.53
2018-02-18T14:43:08.262Z,17.50
2018-02-18T14:45:49.056Z,17.13
2018-02-18T14:48:28.723Z,16.80
2018-02-18T14:51:08.367Z,15.73
2018-02-18T14:53:48.232Z,15.37
2018-02-18T14:56:28.136Z,16.53
2018-02-18T14:58:56.274Z,14.97
2018-02-18T15:01:24.400Z,15.27
2018-02-18T15:03:52.508Z,16.23
2018-02-18T15:06:20.631Z,15.57
2018-02-18T15:08:48.756Z,15.60
2018-02-18T15:11:16.861Z,15.20
2018-02-18T15:13:45.000Z,15.60
2018-02-18T15:16:13.294Z,14.07
2018-02-18T15:18:41.426Z,14.97
2018-02-18T15:21:09.544Z,15.03
2018-02-18T15:23:37.663Z,14.30
2018-02-18T15:26:05.787Z,14.97
2018-02-18T15:28:33.933Z,13.83
2018-02-18T15:31:02.083Z,14.40
2018-02-18T15:33:30.208Z,14.43
2018-02-18T15:35:58.356Z,14.20
2018-02-18T15:38:26.498Z,13.03
2018-02-18T15:40:54.627Z,13.33
2018-02-18T15:43:22.764Z,11.20
2018-02-18T15:45:50.873Z,12.40
2018-02-18T15:48:19.926Z,11.00
2018-02-18T15:50:48.053Z,11.70
2018-02-18T15:53:16.247Z,10.97
2018-02-18T15:55:44.370Z,12.33
2018-02-18T15:58:12.505Z,12.13
2018-02-18T16:00:40.628Z,11.93
2018-02-18T16:03:08.760Z,12.53
2018-02-18T16:05:36.877Z,12.70
2018-02-18T16:08:04.989Z,11.30
2018-02-18T16:10:33.118Z,12.60
2018-02-18T16:13:01.256Z,12.13
2018-02-18T16:15:29.563Z,12.43
2018-02-18T16:17:58.075Z,12.67
2018-02-18T16:20:26.336Z,11.37
2018-02-18T16:22:54.760Z,10.03
2018-02-18T16:25:23.017Z,11.97
2018-02-18T16:27:51.134Z,11.03
2018-02-18T16:30:19.245Z,10.43
2018-02-18T16:32:47.362Z,10.70
2018-02-18T16:35:15.499Z,10.77
2018-02-18T16:37:43.610Z,12.30
2018-02-18T16:40:11.732Z,12.37
2018-02-18T16:42:39.868Z,12.87
2018-02-18T16:45:07.998Z,12.50
2018-02-18T16:47:36.176Z,14.60
2018-02-18T16:50:04.370Z,13.53
2018-02-18T16:52:32.480Z,11.37
2018-02-18T16:55:00.631Z,12.50
2018-02-18T16:57:28.769Z,11.40
2018-02-18T16:59:56.893Z,10.27
2018-02-18T17:02:25.023Z,11.03
2018-02-18T17:04:53.137Z,8.63
2018-02-18T17:07:21.253Z,8.73
2018-02-18T17:09:49.508Z,9.00
2018-02-18T17:12:17.620Z,8.87
2018-02-18T17:14:45.741Z,9.10
2018-02-18T17:17:13.860Z,8.87
2018-02-18T17:19:41.984Z,8.57
2018-02-18T17:22:10.156Z,8.93
2018-02-18T17:24:38.285Z,8.83
2018-02-18T17:27:06.419Z,8.50
2018-02-18T17:29:34.550Z,8.53
2018-02-18T17:32:02.698Z,8.67
2018-02-18T17:34:30.852Z,8.53
2018-02-18T17:37:02.104Z,9.07
2018-02-18T17:39:30.424Z,8.90
2018-02-18T17:41:58.845Z,9.33
2018-02-18T17:44:27.269Z,9.17
2018-02-18T17:46:55.512Z,9.40
2018-02-18T17:49:23.618Z,10.37
2018-02-18T17:51:51.738Z,10.00
2018-02-18T17:54:19.855Z,9.80
2018-02-18T17:56:47.974Z,9.97
2018-02-18T17:59:16.114Z,10.43
2018-02-18T18:01:44.235Z,9.53
2018-02-18T18:04:12.368Z,10.70
2018-02-18T18:06:40.524Z,9.30
2018-02-18T18:09:08.676Z,9.77
2018-02-18T18:11:36.880Z,10.37
2018-02-18T18:14:04.992Z,10.63
2018-02-18T18:16:33.118Z,9.50
2018-02-18T18:19:01.252Z,9.80
2018-02-18T18:21:29.389Z,10.07
2018-02-18T18:23:57.518Z,10.30
2018-02-18T18:26:25.658Z,10.53
2018-02-18T18:28:53.874Z,10.50
2018-02-18T18:31:22.002Z,10.20
2018-02-18T18:33:50.127Z,10.63
2018-02-18T18:36:18.370Z,10.77
2018-02-18T18:38:46.508Z,11.33
2018-02-18T18:41:14.623Z,11.10
2018-02-18T18:43:42.750Z,10.83
2018-02-18T18:46:10.879Z,11.60
2018-02-18T18:48:39.003Z,11.43
2018-02-18T18:51:07.116Z,12.60
2018-02-18T18:53:35.484Z,11.83
2018-02-18T18:56:03.618Z,12.43
2018-02-18T18:58:31.736Z,12.43
2018-02-18T19:00:59.873Z,11.53
2018-02-18T19:03:27.993Z,10.77
2018-02-18T19:05:56.108Z,11.07
2018-02-18T19:08:24.514Z,11.33
2018-02-18T19:10:52.632Z,11.50
2018-02-18T19:13:20.771Z,12.67
2018-02-18T19:15:48.903Z,11.33
2018-02-18T19:18:17.106Z,11.17
2018-02-18T19:20:45.206Z,11.63
2018-02-18T19:23:13.316Z,12.30
2018-02-18T19:25:41.437Z,12.03
2018-02-18T19:28:12.830Z,12.70
2018-02-18T19:30:41.045Z,12.30
2018-02-18T19:33:09.166Z,13.03
2018-02-18T19:35:37.299Z,13.43
2018-02-18T19:38:05.413Z,13.47
2018-02-18T19:40:33.538Z,12.07
2018-02-18T19:43:01.676Z,12.90
2018-02-18T19:45:29.787Z,13.07
2018-02-18T19:47:57.903Z,14.10
2018-02-18T19:50:26.034Z,12.90
2018-02-18T19:52:54.178Z,14.60
2018-02-18T19:55:22.289Z,14.93
2018-02-18T19:57:50.461Z,14.90
2018-02-18T20:00:18.573Z,14.90
2018-02-18T20:02:46.698Z,14.67
2018-02-18T20:05:14.827Z,14.53
2018-02-18T20:07:43.047Z,14.47
2018-02-18T20:10:11.335Z,14.77
2018-02-18T20:12:39.455Z,15.40
2018-02-18T20:15:07.559Z,14.30
2018-02-18T20:17:35.681Z,14.80
2018-02-18T20:20:03.963Z,14.10
2018-02-18T20:22:32.098Z,18.17
2018-02-18T20:25:03.701Z,17.67
2018-02-18T20:27:31.841Z,16.00
2018-02-18T20:29:59.965Z,17.03
2018-02-18T20:32:28.172Z,16.70
2018-02-18T20:34:56.316Z,16.53
2018-02-18T20:37:24.504Z,19.57
2018-02-18T20:39:52.738Z,19.37
2018-02-18T20:42:20.879Z,19.80
2018-02-18T20:44:49.025Z,19.67
2018-02-18T20:47:17.171Z,19.07
2018-02-18T20:49:45.328Z,19.70
2018-02-18T20:52:13.443Z,20.20
2018-02-18T20:54:41.718Z,19.80
2018-02-18T20:57:09.825Z,19.20
2018-02-18T20:59:37.965Z,20.37
2018-02-18T21:02:06.119Z,20.67
2018-02-18T21:04:34.228Z,19.87
2018-02-18T21:07:02.369Z,20.67
2018-02-18T21:09:30.503Z,20.30
2018-02-18T21:11:58.618Z,20.83
2018-02-18T21:14:26.765Z,21.30
2018-02-18T21:16:54.918Z,21.63
2018-02-18T21:19:23.031Z,23.70
2018-02-18T21:21:51.144Z,21.60
2018-02-18T21:24:19.276Z,21.03
2018-02-18T21:26:47.410Z,21.07
2018-02-18T21:29:15.521Z,20.57
2018-02-18T21:31:43.650Z,20.93
2018-02-18T21:34:11.771Z,20.57
2018-02-18T21:36:39.907Z,21.23
2018-02-18T21:39:08.045Z,21.47
2018-02-18T21:41:36.231Z,21.20
2018-02-18T21:44:04.431Z,21.50
2018-02-18T21:46:32.564Z,19.70
2018-02-18T21:49:01.030Z,19.80
2018-02-18T21:51:29.326Z,19.97
2018-02-18T21:53:58.355Z,20.27
2018-02-18T21:56:26.493Z,20.37
2018-02-18T21:58:54.614Z,20.37
2018-02-18T22:01:22.756Z,21.20
2018-02-18T22:03:50.873Z,19.63
2018-02-18T22:06:19.010Z,19.40
2018-02-18T22:08:47.136Z,20.03
2018-02-18T22:11:15.259Z,18.80
2018-02-18T22:13:43.363Z,20.57
2018-02-18T22:16:15.323Z,19.83
2018-02-18T22:18:43.416Z,19.17
2018-02-18T22:21:11.534Z,20.33
2018-02-18T22:23:39.644Z,20.87
2018-02-18T22:26:07.767Z,20.20
2018-02-18T22:28:35.907Z,20.27
2018-02-18T22:31:04.021Z,20.07
2018-02-18T22:33:32.142Z,21.00
2018-02-18T22:36:00.272Z,19.50
2018-02-18T22:38:28.396Z,20.90
2018-02-18T22:40:56.509Z,20.17
2018-02-18T22:43:24.627Z,20.37
2018-02-18T22:45:52.797Z,20.23
2018-02-18T22:48:21.179Z,20.93
2018-02-18T22:50:49.284Z,20.87
2018-02-18T22:53:17.469Z,20.90
2018-02-18T22:55:45.590Z,20.70
2018-02-18T22:58:13.718Z,21.37
2018-02-18T23:00:41.849Z,20.73
2018-02-18T23:03:09.979Z,20.70
2018-02-18T23:05:43.611Z,21.03
2018-02-18T23:08:11.749Z,22.13
2018-02-18T23:10:39.868Z,20.30
2018-02-18T23:13:08.336Z,20.80
2018-02-18T23:15:36.460Z,21.63
2018-02-18T23:18:07.704Z,20.40
2018-02-18T23:20:47.459Z,21.47
2018-02-18T23:23:15.635Z,20.93
2018-02-18T23:25:43.757Z,19.87
2018-02-18T23:28:11.892Z,20.37
2018-02-18T23:30:40.022Z,20.53
2018-02-18T23:33:08.145Z,21.47
2018-02-18T23:35:36.264Z,21.00
2018-02-18T23:38:04.390Z,21.67
2018-02-18T23:40:32.523Z,20.57
2018-02-18T23:43:00.649Z,22.07
2018-02-18T23:45:28.790Z,21.63
2018-02-18T23:47:56.978Z,20.57
2018-02-18T23:50:25.098Z,21.03
2018-02-18T23:52:53.357Z,21.87
2018-02-18T23:55:21.449Z,20.63
2018-02-18T23:57:49.560Z,21.43
